createdAt,value
2022-11-06T00:00:01.120Z,99190.94
2022-11-06T00:02:43.408Z,99201.91
2022-11-06T00:05:50.385Z,99203.47
2022-11-06T00:08:44.272Z,99195.81
2022-11-06T00:11:33.438Z,99191.50
2022-11-06T00:14:23.292Z,99199.44
2022-11-06T00:17:11.800Z,99194.25
2022-11-06T00:19:54.372Z,99193.06
2022-11-06T00:22:38.473Z,99180.25
2022-11-06T00:25:27.404Z,99174.34
2022-11-06T00:28:09.893Z,99177.66
2022-11-06T00:30:59.295Z,99179.53
2022-11-06T00:33:49.297Z,99168.84
2022-11-06T00:36:33.720Z,99171.34
2022-11-06T00:39:22.375Z,99172.94
2022-11-06T00:42:05.040Z,99186.59
2022-11-06T00:44:54.383Z,99182.81
2022-11-06T00:47:37.620Z,99173.22
2022-11-06T00:50:26.564Z,99171.38
2022-11-06T00:53:08.647Z,99176.00
2022-11-06T00:55:59.887Z,99176.25
2022-11-06T00:58:42.677Z,99170.84
2022-11-06T01:01:42.510Z,99185.53
2022-11-06T01:04:34.375Z,99177.38
2022-11-06T01:07:16.568Z,99178.44
2022-11-06T01:10:05.862Z,99182.56
2022-11-06T01:12:53.674Z,99186.66
2022-11-06T01:15:35.376Z,99193.78
2022-11-06T01:18:17.567Z,99192.69
2022-11-06T01:21:06.396Z,99199.50
2022-11-06T01:23:55.775Z,99193.78
2022-11-06T01:26:45.460Z,99194.03
2022-11-06T01:29:48.824Z,99194.84
2022-11-06T01:32:31.378Z,99204.97
2022-11-06T01:35:13.728Z,99200.88
2022-11-06T01:38:02.378Z,99202.50
2022-11-06T01:40:47.184Z,99207.13
2022-11-06T01:43:58.378Z,99219.69
2022-11-06T01:46:47.617Z,99218.03
2022-11-06T01:49:29.655Z,99222.97
2022-11-06T01:52:21.355Z,99216.69
2022-11-06T01:55:10.312Z,99221.88
2022-11-06T01:58:00.363Z,99226.78
2022-11-06T02:00:49.711Z,99227.59
2022-11-06T02:03:32.361Z,99231.97
2022-11-06T02:06:21.891Z,99225.44
2022-11-06T02:09:03.660Z,99227.00
2022-11-06T02:12:05.371Z,99230.31
2022-11-06T02:15:16.395Z,99245.28
2022-11-06T02:18:25.364Z,99244.50
2022-11-06T02:21:10.663Z,99248.81
2022-11-06T02:24:18.356Z,99246.63
2022-11-06T02:27:26.771Z,99247.25
2022-11-06T02:30:19.204Z,99261.72
2022-11-06T02:33:13.758Z,99248.97
2022-11-06T02:36:14.682Z,99260.38
2022-11-06T02:39:06.512Z,99259.34
2022-11-06T02:41:57.445Z,99265.59
2022-11-06T02:44:43.670Z,99260.97
2022-11-06T02:47:36.375Z,99271.63
2022-11-06T02:50:27.661Z,99273.53
2022-11-06T02:53:19.058Z,99280.66
2022-11-06T02:56:17.621Z,99275.75
2022-11-06T02:59:13.490Z,99270.53
2022-11-06T03:02:02.029Z,99278.44
2022-11-06T03:05:03.382Z,99279.00
2022-11-06T03:07:55.703Z,99286.13
2022-11-06T03:10:54.344Z,99281.19
2022-11-06T03:13:52.620Z,99290.97
2022-11-06T03:17:09.360Z,99299.19
2022-11-06T03:20:02.359Z,99294.28
2022-11-06T03:23:05.059Z,99298.09
2022-11-06T03:26:00.391Z,99300.00
2022-11-06T03:29:01.662Z,99306.78
2022-11-06T03:32:06.687Z,99307.41
2022-11-06T03:35:15.675Z,99312.28
2022-11-06T03:38:20.372Z,99314.41
2022-11-06T03:41:25.193Z,99319.16
2022-11-06T03:44:11.400Z,99319.78
2022-11-06T03:47:26.771Z,99324.03
2022-11-06T03:50:33.631Z,99327.72
2022-11-06T03:53:36.432Z,99326.63
2022-11-06T03:56:25.774Z,99324.19
2022-11-06T03:59:26.359Z,99323.50
2022-11-06T04:02:16.467Z,99325.06
2022-11-06T04:05:34.365Z,99321.50
2022-11-06T04:08:44.344Z,99320.88
2022-11-06T04:11:49.073Z,99319.94
2022-11-06T04:14:41.321Z,99320.88
2022-11-06T04:17:25.644Z,99316.94
2022-11-06T04:20:18.354Z,99330.03
2022-11-06T04:23:10.754Z,99334.09
2022-11-06T04:26:38.370Z,99338.44
2022-11-06T04:29:47.641Z,99333.19
2022-11-06T04:32:42.355Z,99332.72
2022-11-06T04:36:02.355Z,99333.09
2022-11-06T04:39:09.439Z,99321.13
2022-11-06T04:42:26.365Z,99330.69
2022-11-06T04:45:33.604Z,99330.00
2022-11-06T04:48:24.321Z,99319.44
2022-11-06T04:51:09.549Z,99325.31
2022-11-06T04:54:01.202Z,99313.91
2022-11-06T04:56:50.403Z,99316.38
2022-11-06T04:59:32.620Z,99318.75
2022-11-06T05:02:21.453Z,99319.47
2022-11-06T05:05:03.938Z,99306.59
2022-11-06T05:07:52.595Z,99315.38
2022-11-06T05:10:36.291Z,99315.88
2022-11-06T05:13:25.351Z,99319.00
2022-11-06T05:16:08.929Z,99312.03
2022-11-06T05:18:57.392Z,99304.38
2022-11-06T05:22:15.412Z,99296.16
2022-11-06T05:24:57.570Z,99292.56
2022-11-06T05:27:46.343Z,99292.06
2022-11-06T05:30:36.404Z,99286.53
2022-11-06T05:33:25.404Z,99291.59
2022-11-06T05:36:14.268Z,99284.66
2022-11-06T05:38:56.852Z,99283.66
2022-11-06T05:41:45.285Z,99282.91
2022-11-06T05:44:27.811Z,99279.56
2022-11-06T05:47:16.402Z,99278.63
2022-11-06T05:49:58.624Z,99281.22
2022-11-06T05:52:47.351Z,99290.34
2022-11-06T05:55:30.042Z,99276.88
2022-11-06T05:58:19.355Z,99269.63
2022-11-06T06:01:07.857Z,99265.53
2022-11-06T06:03:50.349Z,99264.91
2022-11-06T06:06:32.682Z,99252.06
2022-11-06T06:09:21.473Z,99246.84
2022-11-06T06:12:03.717Z,99234.78
2022-11-06T06:14:53.478Z,99230.25
2022-11-06T06:17:36.324Z,99233.16
2022-11-06T06:20:26.521Z,99227.00
2022-11-06T06:26:33.862Z,99213.91
2022-11-06T06:29:15.807Z,99204.66
2022-11-06T06:32:04.253Z,99202.69
2022-11-06T06:34:53.348Z,99206.84
2022-11-06T06:37:42.747Z,99205.69
2022-11-06T06:40:27.995Z,99196.41
2022-11-06T06:43:16.253Z,99199.44
2022-11-06T06:46:05.364Z,99197.34
2022-11-06T06:48:54.388Z,99188.69
2022-11-06T06:51:36.776Z,99190.16
2022-11-06T06:54:25.901Z,99182.47
2022-11-06T06:57:09.935Z,99180.25
2022-11-06T07:00:01.051Z,99169.78
2022-11-06T07:02:50.353Z,99160.66
2022-11-06T07:05:40.124Z,99160.31
2022-11-06T07:08:22.261Z,99160.00
2022-11-06T07:11:08.343Z,99151.00
2022-11-06T07:14:00.073Z,99156.69
2022-11-06T07:16:53.959Z,99149.88
2022-11-06T07:19:46.109Z,99136.81
2022-11-06T07:22:36.999Z,99136.78
2022-11-06T07:25:27.180Z,99125.91
2022-11-06T07:28:10.876Z,99125.06
2022-11-06T07:30:59.561Z,99122.66
2022-11-06T07:33:53.727Z,99127.03
2022-11-06T07:36:37.268Z,99117.94
2022-11-06T07:39:19.782Z,99111.47
2022-11-06T07:42:08.342Z,99102.25
2022-11-06T07:45:04.735Z,99099.56
2022-11-06T07:47:58.905Z,99081.38
2022-11-06T07:50:41.504Z,99087.53
2022-11-06T07:53:30.343Z,99087.19
2022-11-06T07:56:19.331Z,99083.81
2022-11-06T07:59:01.795Z,99083.00
2022-11-06T08:01:50.536Z,99074.41
2022-11-06T08:04:34.173Z,99067.03
2022-11-06T08:07:23.581Z,99064.63
2022-11-06T08:10:13.368Z,99067.72
2022-11-06T08:12:55.717Z,99061.56
2022-11-06T08:15:44.331Z,99058.47
2022-11-06T08:18:26.711Z,99052.94
2022-11-06T08:21:15.339Z,99050.66
2022-11-06T08:23:57.699Z,99040.41
2022-11-06T08:26:46.334Z,99030.84
2022-11-06T08:29:28.552Z,99024.06
2022-11-06T08:32:17.340Z,99021.94
2022-11-06T08:35:06.342Z,99010.25
2022-11-06T08:37:49.458Z,99006.97
2022-11-06T08:40:38.361Z,99003.06
2022-11-06T08:43:28.515Z,99015.44
2022-11-06T08:46:17.639Z,99016.56
2022-11-06T08:49:00.512Z,99005.69
2022-11-06T08:51:42.758Z,99009.53
2022-11-06T08:54:31.254Z,99003.91
2022-11-06T08:57:20.355Z,99008.28
2022-11-06T09:00:02.640Z,99006.66
2022-11-06T09:02:52.740Z,99011.88
2022-11-06T09:05:36.295Z,99001.09
2022-11-06T09:08:26.050Z,99005.19
2022-11-06T09:11:08.978Z,99000.81
2022-11-06T09:13:57.325Z,99003.06
2022-11-06T09:16:47.020Z,99001.47
2022-11-06T09:19:29.648Z,98991.25
2022-11-06T09:22:18.335Z,98996.44
2022-11-06T09:25:08.362Z,98991.56
2022-11-06T09:27:59.598Z,98987.81
2022-11-06T09:30:48.339Z,98994.81
2022-11-06T09:33:37.336Z,98995.13
2022-11-06T09:36:26.888Z,98981.81
2022-11-06T09:39:08.336Z,98980.31
2022-11-06T09:42:10.596Z,98981.75
2022-11-06T09:45:40.709Z,98984.38
2022-11-06T09:48:41.332Z,98980.16
2022-11-06T09:51:30.357Z,98985.47
2022-11-06T09:54:34.249Z,98971.44
2022-11-06T09:57:27.665Z,98974.09
2022-11-06T10:00:21.312Z,98962.22
2022-11-06T10:03:18.250Z,98961.50
2022-11-06T10:06:07.559Z,98960.00
2022-11-06T10:08:57.348Z,98956.44
2022-11-06T10:12:27.317Z,98953.22
2022-11-06T10:15:19.822Z,98955.09
2022-11-06T10:18:14.318Z,98949.25
2022-11-06T10:21:08.438Z,98953.03
2022-11-06T10:24:04.724Z,98945.38
2022-11-06T10:27:03.334Z,98936.47
2022-11-06T10:29:58.338Z,98930.81
2022-11-06T10:33:13.235Z,98922.69
2022-11-06T10:36:15.366Z,98927.09
2022-11-06T10:39:06.260Z,98918.97
2022-11-06T10:41:57.350Z,98916.53
2022-11-06T10:45:10.284Z,98913.59
2022-11-06T10:48:37.106Z,98909.94
2022-11-06T10:51:53.273Z,98904.06
2022-11-06T10:54:48.386Z,98904.72
2022-11-06T10:58:02.179Z,98902.78
2022-11-06T11:00:52.302Z,98903.25
2022-11-06T11:03:52.689Z,98892.06
2022-11-06T11:06:35.351Z,98896.28
2022-11-06T11:09:42.322Z,98892.53
2022-11-06T11:12:41.320Z,98887.19
2022-11-06T11:15:27.490Z,98892.25
2022-11-06T11:18:42.244Z,98897.75
2022-11-06T11:21:29.223Z,98896.44
2022-11-06T11:24:25.251Z,98894.19
2022-11-06T11:27:15.669Z,98894.03
2022-11-06T11:29:58.348Z,98893.53
2022-11-06T11:32:46.739Z,98901.59
2022-11-06T11:35:35.319Z,98896.41
2022-11-06T11:38:19.965Z,98898.34
2022-11-06T11:41:37.410Z,98900.44
2022-11-06T11:44:21.274Z,98901.97
2022-11-06T11:47:10.336Z,98907.25
2022-11-06T11:49:59.331Z,98901.75
2022-11-06T11:52:48.338Z,98896.53
2022-11-06T11:55:38.327Z,98889.59
2022-11-06T11:58:41.335Z,98894.81
2022-11-06T12:01:49.781Z,98893.50
2022-11-06T12:04:51.825Z,98890.63
2022-11-06T12:07:47.751Z,98884.03
2022-11-06T12:10:52.439Z,98889.97
2022-11-06T12:13:35.961Z,98878.47
2022-11-06T12:16:33.387Z,98879.59
2022-11-06T12:19:16.346Z,98874.31
2022-11-06T12:22:13.324Z,98884.47
2022-11-06T12:25:24.259Z,98886.28
2022-11-06T12:28:21.350Z,98890.13
2022-11-06T12:31:25.113Z,98887.06
2022-11-06T12:34:17.520Z,98895.47
2022-11-06T12:37:32.244Z,98896.06
2022-11-06T12:40:28.703Z,98899.34
2022-11-06T12:43:29.319Z,98899.50
2022-11-06T12:46:22.710Z,98903.44
2022-11-06T12:49:51.251Z,98906.81
2022-11-06T12:52:54.050Z,98918.06
2022-11-06T12:55:52.043Z,98916.06
2022-11-06T12:59:13.337Z,98922.28
2022-11-06T13:02:31.461Z,98925.22
2022-11-06T13:05:31.734Z,98938.00
2022-11-06T13:08:31.816Z,98937.69
2022-11-06T13:11:51.822Z,98938.56
2022-11-06T13:14:33.767Z,98940.16
2022-11-06T13:17:34.244Z,98944.31
2022-11-06T13:20:36.422Z,98952.28
2022-11-06T13:23:26.777Z,98958.00
2022-11-06T13:26:28.447Z,98957.16
2022-11-06T13:29:23.612Z,98964.34
2022-11-06T13:32:10.258Z,98957.88
2022-11-06T13:35:01.675Z,98964.25
2022-11-06T13:37:47.481Z,98964.25
2022-11-06T13:40:33.132Z,98966.34
2022-11-06T13:43:25.832Z,98951.81
2022-11-06T13:46:20.552Z,98952.19
2022-11-06T13:49:37.592Z,98946.88
2022-11-06T13:52:51.738Z,98953.19
2022-11-06T13:55:55.358Z,98959.25
2022-11-06T13:59:14.349Z,98958.78
2022-11-06T14:02:54.339Z,98959.47
2022-11-06T14:05:48.586Z,98958.56
2022-11-06T14:09:08.355Z,98959.75
2022-11-06T14:12:15.091Z,98966.91
2022-11-06T14:15:08.228Z,98961.34
2022-11-06T14:18:03.345Z,98959.34
2022-11-06T14:20:54.238Z,98959.47
2022-11-06T14:23:36.635Z,98965.94
2022-11-06T14:26:28.777Z,98968.53
2022-11-06T14:29:29.744Z,98970.78
2022-11-06T14:32:49.991Z,98975.78
2022-11-06T14:35:35.135Z,98972.22
2022-11-06T14:38:25.355Z,98980.47
2022-11-06T14:41:41.860Z,98973.50
2022-11-06T14:44:40.760Z,98977.09
2022-11-06T14:48:02.455Z,98979.16
2022-11-06T14:50:49.673Z,98984.38
2022-11-06T14:53:46.359Z,98983.94
2022-11-06T14:56:41.353Z,98992.41
2022-11-06T14:59:29.367Z,98991.69
2022-11-06T15:02:43.426Z,98994.75
2022-11-06T15:05:41.729Z,98996.47
2022-11-06T15:09:00.339Z,98995.13
2022-11-06T15:11:58.671Z,99001.94
2022-11-06T15:14:40.328Z,98992.13
2022-11-06T15:17:26.878Z,98996.34
2022-11-06T15:20:23.229Z,98996.19
2022-11-06T15:23:16.667Z,98994.06
2022-11-06T15:26:19.344Z,98993.69
2022-11-06T15:29:08.365Z,98990.25
2022-11-06T15:31:57.779Z,98990.25
2022-11-06T15:35:01.318Z,98992.53
2022-11-06T15:37:58.401Z,98999.28
2022-11-06T15:40:49.849Z,98994.91
2022-11-06T15:43:43.339Z,99001.50
2022-11-06T15:46:29.452Z,98996.97
2022-11-06T15:49:33.345Z,98990.91
2022-11-06T15:52:19.418Z,98994.41
2022-11-06T15:55:08.242Z,98990.06
2022-11-06T15:57:57.538Z,98996.13
2022-11-06T16:00:49.363Z,98991.22
2022-11-06T16:03:35.122Z,98993.88
2022-11-06T16:06:26.832Z,98997.91
2022-11-06T16:09:23.325Z,98996.66
2022-11-06T16:12:06.684Z,98998.69
2022-11-06T16:14:56.350Z,99001.13
2022-11-06T16:17:40.838Z,99010.25
2022-11-06T16:20:31.315Z,99017.53
2022-11-06T16:23:14.097Z,99029.56
2022-11-06T16:26:10.262Z,99035.19
2022-11-06T16:28:56.452Z,99068.28
2022-11-06T16:31:45.388Z,99090.44
2022-11-06T16:34:45.292Z,99088.91
2022-11-06T16:37:37.226Z,99088.44
2022-11-06T16:41:02.585Z,99059.13
2022-11-06T16:43:52.157Z,99063.94
2022-11-06T16:47:19.253Z,99075.50
2022-11-06T16:50:09.318Z,99083.19
2022-11-06T16:53:10.490Z,99082.63
2022-11-06T16:56:11.305Z,99087.31
2022-11-06T16:59:24.353Z,99087.53
2022-11-06T17:02:13.485Z,99094.28
2022-11-06T17:04:55.695Z,99091.47
2022-11-06T17:07:44.309Z,99081.50
2022-11-06T17:10:34.825Z,99082.91
2022-11-06T17:13:39.323Z,99085.34
2022-11-06T17:16:31.328Z,99092.13
2022-11-06T17:19:13.727Z,99090.47
2022-11-06T17:22:03.314Z,99098.81
2022-11-06T17:24:45.550Z,99098.28
2022-11-06T17:27:34.371Z,99098.44
2022-11-06T17:30:17.447Z,99093.88
2022-11-06T17:33:06.311Z,99097.78
2022-11-06T17:35:56.760Z,99091.00
2022-11-06T17:38:39.329Z,99084.34
2022-11-06T17:41:37.466Z,99080.19
2022-11-06T17:44:20.847Z,99080.53
2022-11-06T17:47:09.349Z,99091.97
2022-11-06T17:49:58.352Z,99082.13
2022-11-06T17:52:40.707Z,99082.56
2022-11-06T17:55:29.302Z,99081.16
2022-11-06T17:58:11.889Z,99086.72
2022-11-06T18:01:01.351Z,99099.41
2022-11-06T18:03:46.109Z,99094.69
2022-11-06T18:06:35.238Z,99088.69
2022-11-06T18:09:23.007Z,99094.34
2022-11-06T18:12:12.336Z,99094.34
2022-11-06T18:14:55.424Z,99103.38
2022-11-06T18:17:44.391Z,99106.63
2022-11-06T18:20:35.145Z,99110.00
2022-11-06T18:23:17.339Z,99109.31
2022-11-06T18:26:06.756Z,99110.09
2022-11-06T18:28:49.765Z,99110.88
2022-11-06T18:31:38.822Z,99118.84
2022-11-06T18:34:22.292Z,99121.72
2022-11-06T18:37:04.890Z,99121.19
2022-11-06T18:39:53.309Z,99122.84
2022-11-06T18:42:35.810Z,99128.22
2022-11-06T18:45:24.317Z,99126.03
2022-11-06T18:48:07.755Z,99137.25
2022-11-06T18:50:56.336Z,99129.06
2022-11-06T18:53:47.550Z,99127.81
2022-11-06T18:56:30.219Z,99117.75
2022-11-06T18:59:24.358Z,99124.41
2022-11-06T19:02:06.856Z,99128.72
2022-11-06T19:04:55.374Z,99120.00
2022-11-06T19:07:38.032Z,99127.31
2022-11-06T19:10:27.330Z,99117.75
2022-11-06T19:13:09.756Z,99124.63
2022-11-06T19:15:58.390Z,99126.16
2022-11-06T19:18:43.800Z,99112.09
2022-11-06T19:21:32.319Z,99123.50
2022-11-06T19:24:21.579Z,99109.34
2022-11-06T19:27:10.380Z,99123.47
2022-11-06T19:29:53.681Z,99109.78
2022-11-06T19:32:43.032Z,99106.28
2022-11-06T19:35:25.656Z,99114.59
2022-11-06T19:38:16.100Z,99117.75
2022-11-06T19:41:08.867Z,99121.88
2022-11-06T19:43:57.321Z,99122.03
2022-11-06T19:46:39.573Z,99121.16
2022-11-06T19:49:28.317Z,99126.06
2022-11-06T19:52:42.860Z,99123.72
2022-11-06T19:55:27.909Z,99111.19
2022-11-06T19:58:10.306Z,99110.63
2022-11-06T20:00:59.306Z,99101.72
2022-11-06T20:03:48.314Z,99096.03
2022-11-06T20:06:37.211Z,99095.81
2022-11-06T20:09:26.203Z,99095.78
2022-11-06T20:12:16.056Z,99082.25
2022-11-06T20:14:59.233Z,99076.75
2022-11-06T20:17:48.571Z,99075.69
2022-11-06T20:20:35.976Z,99076.63
2022-11-06T20:23:25.223Z,99075.69
2022-11-06T20:26:14.244Z,99073.94
2022-11-06T20:29:03.607Z,99068.56
2022-11-06T20:31:47.809Z,99061.66
2022-11-06T20:34:39.011Z,99049.47
2022-11-06T20:37:44.227Z,99050.88
2022-11-06T20:40:31.832Z,99046.31
2022-11-06T20:43:23.213Z,99036.88
2022-11-06T20:46:05.643Z,99028.44
2022-11-06T20:48:54.337Z,99032.72
2022-11-06T20:51:59.996Z,99032.47
2022-11-06T20:54:47.458Z,99030.78
2022-11-06T20:57:29.730Z,99024.94
2022-11-06T21:00:21.620Z,99011.91
2022-11-06T21:03:03.507Z,99012.06
2022-11-06T21:05:52.229Z,99019.59
2022-11-06T21:08:35.723Z,99029.84
2022-11-06T21:11:28.017Z,99027.25
2022-11-06T21:14:11.232Z,99024.00
2022-11-06T21:17:01.315Z,99032.69
2022-11-06T21:19:43.988Z,99029.63
2022-11-06T21:22:34.020Z,99015.00
2022-11-06T21:25:16.491Z,99012.94
2022-11-06T21:28:08.293Z,99012.41
2022-11-06T21:30:57.192Z,98996.97
2022-11-06T21:33:46.296Z,98998.84
2022-11-06T21:36:44.290Z,98992.78
2022-11-06T21:39:31.662Z,98992.31
2022-11-06T21:42:23.191Z,98975.41
2022-11-06T21:45:14.800Z,98978.69
2022-11-06T21:48:10.944Z,98973.69
2022-11-06T21:51:02.601Z,98970.44
2022-11-06T21:54:09.205Z,98955.91
2022-11-06T21:57:02.800Z,98961.13
2022-11-06T21:59:44.505Z,98966.16
2022-11-06T22:02:33.422Z,98967.09
2022-11-06T22:05:15.561Z,98962.78
2022-11-06T22:08:04.291Z,98959.00
2022-11-06T22:10:46.548Z,98961.22
2022-11-06T22:13:35.226Z,98964.94
2022-11-06T22:16:26.194Z,98964.28
2022-11-06T22:19:08.581Z,98976.59
2022-11-06T22:21:57.305Z,98967.44
2022-11-06T22:24:40.689Z,98973.69
2022-11-06T22:27:29.197Z,98972.78
2022-11-06T22:30:12.577Z,98964.78
2022-11-06T22:33:01.187Z,98975.81
2022-11-06T22:35:43.568Z,98993.72
2022-11-06T22:38:32.187Z,99010.44
2022-11-06T22:41:17.557Z,99012.78
2022-11-06T22:44:07.193Z,99016.38
2022-11-06T22:46:49.635Z,99002.19
2022-11-06T22:49:38.289Z,98998.88
2022-11-06T22:52:20.550Z,99000.25
2022-11-06T22:55:09.296Z,98977.88
2022-11-06T22:57:51.587Z,98986.69
2022-11-06T23:00:40.189Z,98983.03
2022-11-06T23:03:22.734Z,98978.69
2022-11-06T23:06:14.441Z,98978.53
2022-11-06T23:08:56.585Z,98967.72
2022-11-06T23:11:47.194Z,98969.91
2022-11-06T23:14:36.474Z,98977.56
2022-11-06T23:17:25.364Z,98978.38
2022-11-06T23:20:08.710Z,98973.00
2022-11-06T23:22:58.763Z,98969.91
2022-11-06T23:25:41.923Z,98968.78
2022-11-06T23:28:31.335Z,98975.91
2022-11-06T23:31:14.567Z,98970.47
2022-11-06T23:34:03.274Z,98968.34
2022-11-06T23:36:45.837Z,98960.13
2022-11-06T23:39:34.183Z,98972.56
2022-11-06T23:42:23.280Z,98972.56
2022-11-06T23:45:31.278Z,98966.13
2022-11-06T23:48:18.603Z,98960.50
2022-11-06T23:51:08.270Z,98966.56
2022-11-06T23:53:51.257Z,98971.63
2022-11-06T23:56:42.211Z,98960.06
2022-11-06T23:59:24.191Z,98957.38
